Time;durP1;ratioP1;P1;durP2;ratioP2;P2;SDS_P1;SDS_P2;PMS_P1;PMS_P2;Temp;Humidity;BMP_temperature;BMP_pressure;BME280_temperature;BME280_humidity;BME280_pressure;Samples;Min_cycle;Max_cycle;Signal;HPM_P1;HPM_P2
2023/05/03 00:01:38;;;;;;;;;;;8.40;63.10;;;;;;5075305;28;19915;-26
2023/05/03 00:04:03;;;;;;;;;;;8.40;63.00;;;;;;5075226;28;19931;-25
2023/05/03 00:06:30;;;;;;;;;;;8.40;63.00;;;;;;5075356;28;19959;-26
2023/05/03 00:08:55;;;;;;;;;;;8.40;63.00;;;;;;5075388;28;19909;-26
2023/05/03 00:11:21;;;;;;;;;;;8.40;63.00;;;;;;5074995;28;19916;-26
2023/05/03 00:13:46;;;;;;;;;;;8.40;63.00;;;;;;5075087;28;19978;-29
2023/05/03 00:16:12;;;;;;;;;;;8.40;63.00;;;;;;5075062;28;19909;-26
2023/05/03 00:18:37;;;;;;;;;;;8.40;63.00;;;;;;5075290;28;19916;-30
2023/05/03 00:21:03;;;;;;;;;;;8.30;62.90;;;;;;5074880;28;19908;-31
2023/05/03 00:23:28;;;;;;;;;;;8.40;63.00;;;;;;5074727;28;19931;-26
2023/05/03 00:25:55;;;;;;;;;;;8.30;63.20;;;;;;5074827;28;19924;-26
2023/05/03 00:28:21;;;;;;;;;;;8.30;63.20;;;;;;5075071;28;19999;-26
2023/05/03 00:30:46;;;;;;;;;;;8.20;63.20;;;;;;5074667;28;20012;-33
2023/05/03 00:33:12;;;;;;;;;;;8.20;63.20;;;;;;5074864;28;20394;-26
2023/05/03 00:35:37;;;;;;;;;;;8.20;63.40;;;;;;5074881;28;20361;-26
2023/05/03 00:38:02;;;;;;;;;;;8.10;63.50;;;;;;5074625;28;20006;-26
2023/05/03 00:40:28;;;;;;;;;;;8.10;63.50;;;;;;5074652;28;20372;-27
2023/05/03 00:42:53;;;;;;;;;;;8.10;63.70;;;;;;5074415;28;19942;-27
2023/05/03 00:45:19;;;;;;;;;;;8.00;63.80;;;;;;5074548;28;19916;-28
2023/05/03 00:47:44;;;;;;;;;;;8.00;64.60;;;;;;5074662;28;19934;-26
2023/05/03 00:50:10;;;;;;;;;;;7.90;64.20;;;;;;5074250;28;19965;-30
2023/05/03 00:52:39;;;;;;;;;;;7.90;64.30;;;;;;5074368;28;19912;-26
2023/05/03 00:55:06;;;;;;;;;;;7.90;64.40;;;;;;5073775;28;19928;-26
2023/05/03 00:57:31;;;;;;;;;;;7.80;64.40;;;;;;5074196;28;19919;-27
2023/05/03 00:59:57;;;;;;;;;;;7.80;64.50;;;;;;5074309;28;19908;-28
2023/05/03 01:02:23;;;;;;;;;;;7.80;64.60;;;;;;5074223;28;20216;-26
2023/05/03 01:04:50;;;;;;;;;;;7.80;64.70;;;;;;5074285;28;20414;-26
2023/05/03 01:07:15;;;;;;;;;;;7.70;64.70;;;;;;5074058;28;19915;-26
2023/05/03 01:09:47;;;;;;;;;;;7.70;64.80;;;;;;5073973;28;20279;-27
2023/05/03 01:12:23;;;;;;;;;;;7.70;65.00;;;;;;5073941;28;20355;-28
2023/05/03 01:14:49;;;;;;;;;;;7.70;65.00;;;;;;5074075;28;19943;-29
2023/05/03 01:17:14;;;;;;;;;;;7.70;65.10;;;;;;5073883;28;19909;-32
2023/05/03 01:19:44;;;;;;;;;;;7.70;65.10;;;;;;5073703;28;19920;-27
2023/05/03 01:22:20;;;;;;;;;;;7.60;65.20;;;;;;5073977;28;19958;-28
2023/05/03 01:24:49;;;;;;;;;;;7.60;65.30;;;;;;5073760;28;19920;-26
2023/05/03 01:27:15;;;;;;;;;;;7.60;65.40;;;;;;5073648;28;19909;-26
2023/05/03 01:29:40;;;;;;;;;;;7.60;65.40;;;;;;5073610;28;19923;-29
2023/05/03 01:32:10;;;;;;;;;;;7.60;65.40;;;;;;5073593;28;20292;-26
2023/05/03 01:34:49;;;;;;;;;;;7.60;65.50;;;;;;5073817;28;19919;-26
2023/05/03 01:37:16;;;;;;;;;;;7.50;65.50;;;;;;5073436;28;19909;-26
2023/05/03 01:39:52;;;;;;;;;;;7.60;65.60;;;;;;5073521;28;19969;-27
2023/05/03 01:42:19;;;;;;;;;;;7.50;65.60;;;;;;5073746;28;19908;-26
2023/05/03 01:44:46;;;;;;;;;;;7.50;65.70;;;;;;5073674;28;19909;-26
2023/05/03 01:47:11;;;;;;;;;;;7.50;65.80;;;;;;5073358;28;19908;-36
2023/05/03 01:49:37;;;;;;;;;;;7.50;66.00;;;;;;5073120;28;20437;-26
2023/05/03 01:52:02;;;;;;;;;;;7.50;66.00;;;;;;5073205;28;19966;-27
2023/05/03 01:54:27;;;;;;;;;;;7.40;66.00;;;;;;5073119;28;19942;-28
2023/05/03 01:56:53;;;;;;;;;;;7.40;66.10;;;;;;5073084;28;19909;-30
2023/05/03 01:59:18;;;;;;;;;;;7.40;66.20;;;;;;5073152;28;19943;-26
2023/05/03 02:01:44;;;;;;;;;;;7.30;66.30;;;;;;5073188;28;19909;-29
2023/05/03 02:04:10;;;;;;;;;;;7.40;66.40;;;;;;5073025;28;19908;-33
2023/05/03 02:06:35;;;;;;;;;;;7.40;66.50;;;;;;5072033;28;19920;-38
2023/05/03 02:09:01;;;;;;;;;;;7.30;66.50;;;;;;5073143;28;20011;-27
2023/05/03 02:11:26;;;;;;;;;;;7.30;66.50;;;;;;5072725;28;19920;-28
2023/05/03 02:13:52;;;;;;;;;;;7.30;66.60;;;;;;5073030;28;19934;-29
2023/05/03 02:16:17;;;;;;;;;;;7.30;66.70;;;;;;5072739;28;19951;-26
2023/05/03 02:18:43;;;;;;;;;;;7.30;66.80;;;;;;5072570;28;19908;-27
2023/05/03 02:21:09;;;;;;;;;;;7.30;66.70;;;;;;5072648;28;20001;-35
2023/05/03 02:23:34;;;;;;;;;;;7.20;66.70;;;;;;5072368;28;20023;-27
2023/05/03 02:26:00;;;;;;;;;;;7.20;66.80;;;;;;5072652;28;19916;-28
2023/05/03 02:28:25;;;;;;;;;;;7.20;66.80;;;;;;5072789;28;19915;-27
2023/05/03 02:30:51;;;;;;;;;;;7.20;66.80;;;;;;5072392;28;19920;-27
2023/05/03 02:33:16;;;;;;;;;;;7.20;66.90;;;;;;5072407;28;19954;-25
2023/05/03 02:35:42;;;;;;;;;;;7.20;66.70;;;;;;5072485;28;20400;-27
2023/05/03 02:38:07;;;;;;;;;;;7.20;66.80;;;;;;5072608;28;20003;-30
2023/05/03 02:40:33;;;;;;;;;;;7.20;66.70;;;;;;5072220;28;19908;-29
2023/05/03 02:42:59;;;;;;;;;;;7.20;66.80;;;;;;5072339;28;19951;-26
2023/05/03 02:45:24;;;;;;;;;;;7.20;66.70;;;;;;5072190;28;19909;-32
2023/05/03 02:47:50;;;;;;;;;;;7.20;66.70;;;;;;5072180;28;19909;-27
2023/05/03 02:50:15;;;;;;;;;;;7.20;66.70;;;;;;5071992;28;19920;-29
2023/05/03 02:52:41;;;;;;;;;;;7.20;66.60;;;;;;5072462;28;19909;-26
2023/05/03 02:55:07;;;;;;;;;;;7.20;66.50;;;;;;5072293;28;19918;-26
2023/05/03 02:57:32;;;;;;;;;;;7.20;66.40;;;;;;5072283;28;19919;-28
2023/05/03 02:59:57;;;;;;;;;;;7.30;66.50;;;;;;5072086;28;19915;-26
2023/05/03 03:02:23;;;;;;;;;;;7.30;66.40;;;;;;5071883;28;20361;-26
2023/05/03 03:04:48;;;;;;;;;;;7.30;66.40;;;;;;5072255;28;19909;-30
2023/05/03 03:07:14;;;;;;;;;;;7.30;66.30;;;;;;5072280;28;20412;-27
2023/05/03 03:09:39;;;;;;;;;;;7.30;66.30;;;;;;5071891;28;19921;-27
2023/05/03 03:12:05;;;;;;;;;;;7.30;66.30;;;;;;5072028;28;19908;-27
2023/05/03 03:14:30;;;;;;;;;;;7.30;66.30;;;;;;5071912;28;19916;-27
2023/05/03 03:16:56;;;;;;;;;;;7.30;66.30;;;;;;5071963;28;19908;-26
2023/05/03 03:19:22;;;;;;;;;;;7.30;66.30;;;;;;5071571;28;19912;-33
2023/05/03 03:21:47;;;;;;;;;;;7.30;66.30;;;;;;5071875;28;20364;-26
2023/05/03 03:24:13;;;;;;;;;;;7.30;66.30;;;;;;5071638;28;19920;-38
2023/05/03 03:26:38;;;;;;;;;;;7.20;66.30;;;;;;5071902;28;19909;-27
2023/05/03 03:29:04;;;;;;;;;;;7.20;66.30;;;;;;5071668;28;19933;-27
2023/05/03 03:31:30;;;;;;;;;;;7.20;66.40;;;;;;5070446;28;19934;-25
2023/05/03 03:33:55;;;;;;;;;;;7.20;66.40;;;;;;5071815;28;19914;-29
2023/05/03 03:36:20;;;;;;;;;;;7.20;66.50;;;;;;5071704;28;19915;-27
2023/05/03 03:38:46;;;;;;;;;;;7.10;66.50;;;;;;5071717;28;20417;-26
2023/05/03 03:41:11;;;;;;;;;;;7.10;66.50;;;;;;5071688;28;19939;-40
2023/05/03 03:43:37;;;;;;;;;;;7.10;66.50;;;;;;5070289;28;19908;-26
2023/05/03 03:46:02;;;;;;;;;;;7.10;66.60;;;;;;5071918;28;20380;-26
2023/05/03 03:48:28;;;;;;;;;;;7.00;66.60;;;;;;5071639;28;19951;-26
2023/05/03 03:50:53;;;;;;;;;;;7.00;66.60;;;;;;5071578;28;19919;-29
2023/05/03 03:53:19;;;;;;;;;;;7.00;66.70;;;;;;5071513;28;19908;-26
2023/05/03 03:55:44;;;;;;;;;;;7.00;66.70;;;;;;5071561;28;19909;-27
2023/05/03 03:58:10;;;;;;;;;;;7.00;66.70;;;;;;5071877;28;19935;-26
2023/05/03 04:00:35;;;;;;;;;;;7.00;66.70;;;;;;5071647;28;19920;-27
2023/05/03 04:03:01;;;;;;;;;;;6.90;66.70;;;;;;5071464;28;19927;-27
2023/05/03 04:05:26;;;;;;;;;;;7.00;66.80;;;;;;5071537;28;20364;-26
2023/05/03 04:07:52;;;;;;;;;;;7.00;66.80;;;;;;5071552;28;19931;-28
2023/05/03 04:10:17;;;;;;;;;;;7.00;66.80;;;;;;5071197;28;19979;-26
2023/05/03 04:12:43;;;;;;;;;;;6.90;66.80;;;;;;5071432;28;19908;-27
2023/05/03 04:15:09;;;;;;;;;;;7.00;66.90;;;;;;5071441;28;19948;-25
2023/05/03 04:17:35;;;;;;;;;;;6.90;66.80;;;;;;5071271;28;19948;-27
2023/05/03 04:20:05;;;;;;;;;;;6.90;66.80;;;;;;5071633;28;19998;-31
2023/05/03 04:22:31;;;;;;;;;;;6.90;66.90;;;;;;5071328;28;19909;-27
2023/05/03 04:24:56;;;;;;;;;;;6.90;66.90;;;;;;5071043;28;20334;-26
2023/05/03 04:27:22;;;;;;;;;;;6.90;66.90;;;;;;5071256;28;19912;-34
2023/05/03 04:29:49;;;;;;;;;;;7.00;67.00;;;;;;5072132;28;19966;-26
2023/05/03 04:32:15;;;;;;;;;;;7.00;67.00;;;;;;5074613;28;19909;-28
2023/05/03 04:34:41;;;;;;;;;;;7.00;67.00;;;;;;5075008;28;19995;-26
2023/05/03 04:37:08;;;;;;;;;;;7.00;67.00;;;;;;5075030;28;19946;-26
2023/05/03 04:39:33;;;;;;;;;;;7.10;67.10;;;;;;5074956;28;19908;-29
2023/05/03 04:42:00;;;;;;;;;;;7.00;67.00;;;;;;5074581;28;19962;-27
2023/05/03 04:44:25;;;;;;;;;;;7.10;67.00;;;;;;5074555;28;20288;-47
2023/05/03 04:46:51;;;;;;;;;;;7.10;67.00;;;;;;5074556;28;19909;-30
2023/05/03 04:49:16;;;;;;;;;;;7.20;67.10;;;;;;5074200;28;20336;-26
2023/05/03 04:51:42;;;;;;;;;;;7.20;67.10;;;;;;5074421;28;19916;-29
2023/05/03 04:54:07;;;;;;;;;;;7.20;67.10;;;;;;5074387;28;19909;-25
2023/05/03 04:56:34;;;;;;;;;;;7.20;67.00;;;;;;5074334;28;19909;-29
2023/05/03 04:59:00;;;;;;;;;;;7.20;67.10;;;;;;5074381;28;19915;-32
2023/05/03 05:01:26;;;;;;;;;;;7.20;67.10;;;;;;5074576;28;19909;-28
2023/05/03 05:03:52;;;;;;;;;;;7.20;67.10;;;;;;5074549;28;19919;-26
2023/05/03 05:06:18;;;;;;;;;;;7.20;67.10;;;;;;5074380;28;19991;-27
2023/05/03 05:08:43;;;;;;;;;;;7.20;67.20;;;;;;5073985;28;19909;-26
2023/05/03 05:11:09;;;;;;;;;;;7.20;67.30;;;;;;5072748;28;19918;-26
2023/05/03 05:13:35;;;;;;;;;;;7.20;67.30;;;;;;5074252;28;19913;-26
2023/05/03 05:16:01;;;;;;;;;;;7.30;67.30;;;;;;5074102;28;20445;-26
2023/05/03 05:18:26;;;;;;;;;;;7.30;67.20;;;;;;5073846;28;20287;-27
2023/05/03 05:20:52;;;;;;;;;;;7.40;67.20;;;;;;5074080;28;19936;-28
2023/05/03 05:23:18;;;;;;;;;;;7.40;67.20;;;;;;5073860;28;19961;-28
2023/05/03 05:25:45;;;;;;;;;;;7.40;67.30;;;;;;5073106;28;21555;-30
2023/05/03 05:28:10;;;;;;;;;;;7.40;67.20;;;;;;5073872;28;19919;-25
2023/05/03 05:30:36;;;;;;;;;;;7.50;67.20;;;;;;5073705;28;20329;-26
2023/05/03 05:33:02;;;;;;;;;;;7.50;67.10;;;;;;5073783;28;19916;-26
2023/05/03 05:35:27;;;;;;;;;;;7.60;67.10;;;;;;5073650;28;20371;-26
2023/05/03 05:37:53;;;;;;;;;;;7.60;67.00;;;;;;5073662;28;19958;-31
2023/05/03 05:40:19;;;;;;;;;;;7.70;66.90;;;;;;5073442;28;19912;-26
2023/05/03 05:42:45;;;;;;;;;;;7.70;66.80;;;;;;5073416;28;19913;-31
2023/05/03 05:45:11;;;;;;;;;;;7.80;66.70;;;;;;5073750;28;19913;-25
2023/05/03 05:47:36;;;;;;;;;;;7.90;66.70;;;;;;5073489;28;20284;-32
2023/05/03 05:50:02;;;;;;;;;;;7.90;66.60;;;;;;5071845;28;19920;-27
2023/05/03 05:52:28;;;;;;;;;;;8.00;66.60;;;;;;5073302;28;19912;-27
2023/05/03 05:54:54;;;;;;;;;;;8.00;66.50;;;;;;5073162;28;19924;-29
2023/05/03 05:57:19;;;;;;;;;;;8.10;66.50;;;;;;5073182;28;19918;-27
2023/05/03 05:59:45;;;;;;;;;;;8.10;66.40;;;;;;5073345;28;19920;-26
2023/05/03 06:02:13;;;;;;;;;;;8.10;66.30;;;;;;5073452;28;19912;-34
2023/05/03 06:04:39;;;;;;;;;;;8.20;66.30;;;;;;5071592;28;20007;-27
2023/05/03 06:07:04;;;;;;;;;;;8.20;66.20;;;;;;5073065;28;19962;-26
2023/05/03 06:09:30;;;;;;;;;;;8.20;66.10;;;;;;5072822;28;19912;-27
2023/05/03 06:11:55;;;;;;;;;;;8.30;66.00;;;;;;5072818;28;20326;-26
2023/05/03 06:14:21;;;;;;;;;;;8.30;66.00;;;;;;5072954;28;19913;-27
2023/05/03 06:16:46;;;;;;;;;;;8.40;65.90;;;;;;5072767;28;19962;-30
2023/05/03 06:19:12;;;;;;;;;;;8.40;65.80;;;;;;5073063;28;19944;-38
2023/05/03 06:21:37;;;;;;;;;;;8.50;65.80;;;;;;5072774;28;20335;-26
2023/05/03 06:24:03;;;;;;;;;;;8.50;65.70;;;;;;5072427;28;20360;-28
2023/05/03 06:26:28;;;;;;;;;;;8.60;65.60;;;;;;5072628;28;20139;-26
2023/05/03 06:28:54;;;;;;;;;;;8.60;65.50;;;;;;5072664;28;19931;-28
2023/05/03 06:31:19;;;;;;;;;;;8.70;65.70;;;;;;5072304;28;19917;-29
2023/05/03 06:33:45;;;;;;;;;;;8.80;65.60;;;;;;5072650;28;19920;-29
2023/05/03 06:36:10;;;;;;;;;;;8.80;65.50;;;;;;5072731;28;20043;-27
2023/05/03 06:38:36;;;;;;;;;;;8.80;65.30;;;;;;5072686;28;20003;-27
2023/05/03 06:41:01;;;;;;;;;;;8.90;65.30;;;;;;5072382;28;19916;-26
2023/05/03 06:43:27;;;;;;;;;;;8.90;65.20;;;;;;5072516;28;20003;-29
2023/05/03 06:45:52;;;;;;;;;;;8.90;65.40;;;;;;5072375;28;19923;-26
2023/05/03 06:48:18;;;;;;;;;;;9.00;65.30;;;;;;5072469;28;19919;-26
2023/05/03 06:50:43;;;;;;;;;;;9.00;65.10;;;;;;5072168;28;19938;-27
2023/05/03 06:53:09;;;;;;;;;;;9.10;65.10;;;;;;5071784;28;19917;-27
2023/05/03 06:55:34;;;;;;;;;;;9.10;65.00;;;;;;5072521;28;20003;-29
2023/05/03 06:58:00;;;;;;;;;;;9.20;65.10;;;;;;5072361;28;19919;-26
2023/05/03 07:00:26;;;;;;;;;;;9.20;65.00;;;;;;5071943;28;19912;-32
2023/05/03 07:02:51;;;;;;;;;;;9.20;65.30;;;;;;5072261;28;19959;-26
2023/05/03 07:05:17;;;;;;;;;;;9.20;65.50;;;;;;5071832;28;19913;-26
2023/05/03 07:07:42;;;;;;;;;;;9.30;65.60;;;;;;5072051;28;19935;-27
2023/05/03 07:10:08;;;;;;;;;;;9.30;65.30;;;;;;5071775;28;19916;-37
2023/05/03 07:12:33;;;;;;;;;;;9.30;65.20;;;;;;5071811;28;19912;-27
2023/05/03 07:14:59;;;;;;;;;;;9.40;65.30;;;;;;5071951;28;19957;-27
2023/05/03 07:17:24;;;;;;;;;;;9.40;65.00;;;;;;5071972;28;19920;-27
2023/05/03 07:19:50;;;;;;;;;;;9.40;64.90;;;;;;5070367;28;20265;-33
2023/05/03 07:22:16;;;;;;;;;;;9.50;65.60;;;;;;5071729;28;20474;-28
2023/05/03 07:24:42;;;;;;;;;;;9.50;65.20;;;;;;5071601;28;20388;-25
2023/05/03 07:27:07;;;;;;;;;;;9.60;64.80;;;;;;5071825;28;20288;-27
2023/05/03 07:29:33;;;;;;;;;;;9.60;64.40;;;;;;5071791;28;19919;-26
2023/05/03 07:31:59;;;;;;;;;;;9.60;64.20;;;;;;5071722;28;20008;-27
2023/05/03 07:34:24;;;;;;;;;;;9.60;64.20;;;;;;5071792;28;19999;-29
2023/05/03 07:36:50;;;;;;;;;;;9.70;64.80;;;;;;5071719;28;19912;-25
2023/05/03 07:39:16;;;;;;;;;;;9.80;64.30;;;;;;5071574;28;19920;-29
2023/05/03 07:41:42;;;;;;;;;;;9.80;64.10;;;;;;5071520;28;20364;-26
2023/05/03 07:44:07;;;;;;;;;;;9.80;64.10;;;;;;5070941;28;19920;-26
2023/05/03 07:46:33;;;;;;;;;;;9.90;64.20;;;;;;5071765;28;19913;-29
2023/05/03 07:49:03;;;;;;;;;;;9.90;64.30;;;;;;5071947;28;20054;-25
2023/05/03 07:51:28;;;;;;;;;;;10.00;64.30;;;;;;5071529;28;19969;-25
2023/05/03 07:53:57;;;;;;;;;;;10.10;64.50;;;;;;5071621;28;20003;-25
2023/05/03 07:56:22;;;;;;;;;;;10.10;64.30;;;;;;5071564;28;19917;-26
2023/05/03 07:58:48;;;;;;;;;;;10.20;64.80;;;;;;5071630;28;20336;-26
2023/05/03 08:01:13;;;;;;;;;;;10.20;64.30;;;;;;5053013;28;20062;-32
2023/05/03 08:03:39;;;;;;;;;;;10.30;64.20;;;;;;5069726;28;19912;-30
2023/05/03 08:06:04;;;;;;;;;;;10.30;63.90;;;;;;5072481;28;20384;-28
2023/05/03 08:08:31;;;;;;;;;;;10.40;62.90;;;;;;5073269;28;19962;-27
2023/05/03 08:10:56;;;;;;;;;;;10.40;63.40;;;;;;5073408;28;19958;-27
2023/05/03 08:13:22;;;;;;;;;;;10.40;63.50;;;;;;5073271;28;19955;-26
2023/05/03 08:15:48;;;;;;;;;;;10.50;64.80;;;;;;5073247;28;20258;-26
2023/05/03 08:18:13;;;;;;;;;;;10.60;64.90;;;;;;5073116;28;19913;-29
2023/05/03 08:20:39;;;;;;;;;;;10.60;63.90;;;;;;5073258;28;20443;-30
2023/05/03 08:23:04;;;;;;;;;;;10.70;63.90;;;;;;5073293;28;19918;-24
2023/05/03 08:25:30;;;;;;;;;;;10.80;64.30;;;;;;5072856;28;19927;-27
2023/05/03 08:27:55;;;;;;;;;;;10.80;64.30;;;;;;5073127;28;19962;-25
2023/05/03 08:30:21;;;;;;;;;;;10.90;64.20;;;;;;5072842;28;19950;-28
2023/05/03 08:32:47;;;;;;;;;;;11.00;63.80;;;;;;5072871;28;19919;-29
2023/05/03 08:35:14;;;;;;;;;;;11.00;62.90;;;;;;5073203;28;19912;-29
2023/05/03 08:37:40;;;;;;;;;;;11.10;62.90;;;;;;5072692;28;19913;-25
2023/05/03 08:40:07;;;;;;;;;;;11.10;63.60;;;;;;5072714;28;19919;-33
2023/05/03 08:42:32;;;;;;;;;;;11.20;63.70;;;;;;5072737;28;19995;-28
2023/05/03 08:44:58;;;;;;;;;;;11.30;62.90;;;;;;5072778;28;20054;-28
2023/05/03 08:47:26;;;;;;;;;;;11.30;62.80;;;;;;5073064;28;19919;-26
2023/05/03 08:49:52;;;;;;;;;;;11.40;61.60;;;;;;5071339;28;19916;-26
2023/05/03 08:52:19;;;;;;;;;;;11.40;62.30;;;;;;5072612;28;19923;-28
2023/05/03 08:54:45;;;;;;;;;;;11.40;61.90;;;;;;5072641;28;20011;-26
2023/05/03 08:57:13;;;;;;;;;;;11.50;62.00;;;;;;5072545;28;20011;-28
2023/05/03 08:59:48;;;;;;;;;;;11.50;63.40;;;;;;5072497;28;19923;-28
2023/05/03 09:02:14;;;;;;;;;;;11.50;63.20;;;;;;5072402;28;19923;-26
2023/05/03 09:04:39;;;;;;;;;;;11.60;63.10;;;;;;5072388;28;19912;-27
2023/05/03 09:07:09;;;;;;;;;;;11.70;63.80;;;;;;5070862;28;19952;-28
2023/05/03 09:09:35;;;;;;;;;;;11.80;63.70;;;;;;5072249;28;19919;-28
2023/05/03 09:12:01;;;;;;;;;;;11.80;64.80;;;;;;5072232;28;19912;-27
2023/05/03 09:14:26;;;;;;;;;;;11.90;63.80;;;;;;5072248;28;20457;-32
2023/05/03 09:16:51;;;;;;;;;;;11.90;63.50;;;;;;5071773;28;19920;-29
2023/05/03 09:19:17;;;;;;;;;;;11.90;63.30;;;;;;5071994;28;19919;-26
2023/05/03 09:21:44;;;;;;;;;;;11.90;59.80;;;;;;5070571;28;20260;-28
2023/05/03 09:24:16;;;;;;;;;;;11.90;61.60;;;;;;5071979;28;20157;-32
2023/05/03 09:26:42;;;;;;;;;;;11.90;62.90;;;;;;5071880;28;19912;-26
2023/05/03 09:29:08;;;;;;;;;;;12.00;63.10;;;;;;5071916;28;19913;-28
2023/05/03 09:31:34;;;;;;;;;;;12.10;63.10;;;;;;5071715;28;19916;-26
2023/05/03 09:34:00;;;;;;;;;;;12.20;63.20;;;;;;5071870;28;19962;-28
2023/05/03 09:36:26;;;;;;;;;;;12.30;62.50;;;;;;5071730;28;19916;-27
2023/05/03 09:38:52;;;;;;;;;;;12.40;62.80;;;;;;5071694;28;19916;-28
2023/05/03 09:41:25;;;;;;;;;;;12.50;62.80;;;;;;5071612;28;19920;-25
2023/05/03 09:43:51;;;;;;;;;;;12.50;62.20;;;;;;5071808;28;19919;-29
2023/05/03 09:46:17;;;;;;;;;;;12.50;62.50;;;;;;5071324;28;19913;-27
2023/05/03 09:48:43;;;;;;;;;;;12.60;65.30;;;;;;5071575;28;19924;-29
2023/05/03 09:51:10;;;;;;;;;;;12.70;65.60;;;;;;5071267;28;20019;-33
2023/05/03 09:53:37;;;;;;;;;;;12.70;65.20;;;;;;5071242;28;19917;-29
2023/05/03 09:56:03;;;;;;;;;;;12.80;62.50;;;;;;5071283;28;20387;-29
2023/05/03 09:58:33;;;;;;;;;;;12.80;63.20;;;;;;5071218;28;19913;-30
2023/05/03 10:00:59;;;;;;;;;;;12.70;61.60;;;;;;5071329;28;19912;-30
2023/05/03 10:03:43;;;;;;;;;;;12.70;61.60;;;;;;5071319;28;20275;-29
2023/05/03 10:06:29;;;;;;;;;;;12.70;63.70;;;;;;5071043;28;19912;-28
2023/05/03 10:09:15;;;;;;;;;;;12.70;66.80;;;;;;5070675;28;19912;-31
2023/05/03 10:11:45;;;;;;;;;;;12.90;66.90;;;;;;5070710;28;20264;-26
2023/05/03 10:14:11;;;;;;;;;;;13.00;66.40;;;;;;5070947;28;20003;-32
2023/05/03 10:16:37;;;;;;;;;;;13.10;65.60;;;;;;5070707;28;20469;-27
2023/05/03 10:19:08;;;;;;;;;;;13.20;64.60;;;;;;5070804;28;19913;-31
2023/05/03 10:21:41;;;;;;;;;;;13.20;63.90;;;;;;5070717;28;19955;-30
2023/05/03 10:24:13;;;;;;;;;;;13.30;64.60;;;;;;5070504;28;20005;-37
2023/05/03 10:26:46;;;;;;;;;;;13.40;65.80;;;;;;5070443;28;19913;-27
2023/05/03 10:29:30;;;;;;;;;;;13.50;66.50;;;;;;5070405;28;19947;-28
2023/05/03 10:31:56;;;;;;;;;;;13.60;66.90;;;;;;5070570;28;19927;-27
2023/05/03 10:34:22;;;;;;;;;;;13.70;65.40;;;;;;5070496;28;19916;-27
2023/05/03 10:36:54;;;;;;;;;;;13.80;65.60;;;;;;5070531;28;20116;-30
2023/05/03 10:39:20;;;;;;;;;;;13.90;64.90;;;;;;5070712;28;19920;-31
2023/05/03 10:41:58;;;;;;;;;;;14.00;65.20;;;;;;5070654;28;19912;-27
2023/05/03 10:44:28;;;;;;;;;;;14.10;65.50;;;;;;5070459;28;19912;-32
2023/05/03 10:46:54;;;;;;;;;;;14.20;67.00;;;;;;5070678;28;19943;-28
2023/05/03 10:49:20;;;;;;;;;;;14.20;65.80;;;;;;5070264;28;19913;-28
2023/05/03 10:51:46;;;;;;;;;;;14.30;64.20;;;;;;5070419;28;19917;-29
2023/05/03 10:54:12;;;;;;;;;;;14.30;63.90;;;;;;5070240;28;19916;-26
2023/05/03 10:56:47;;;;;;;;;;;14.40;63.50;;;;;;5070219;28;19920;-29
2023/05/03 10:59:12;;;;;;;;;;;14.40;63.80;;;;;;5070359;28;20007;-33
2023/05/03 11:01:39;;;;;;;;;;;14.50;63.60;;;;;;5070160;28;19964;-26
2023/05/03 11:04:08;;;;;;;;;;;14.60;63.60;;;;;;5070408;28;19977;-27
2023/05/03 11:06:35;;;;;;;;;;;14.70;64.30;;;;;;5070221;28;19966;-28
2023/05/03 11:09:03;;;;;;;;;;;14.70;64.40;;;;;;5070250;28;20368;-27
2023/05/03 11:11:28;;;;;;;;;;;14.80;65.10;;;;;;5070499;28;20332;-41
2023/05/03 11:13:54;;;;;;;;;;;14.90;64.80;;;;;;5070270;28;19912;-26
2023/05/03 11:16:20;;;;;;;;;;;15.00;65.60;;;;;;5070358;28;19920;-31
2023/05/03 11:18:47;;;;;;;;;;;15.00;64.70;;;;;;5070359;28;19928;-31
2023/05/03 11:21:13;;;;;;;;;;;15.10;64.40;;;;;;5070152;28;19913;-29
2023/05/03 11:23:38;;;;;;;;;;;15.20;64.90;;;;;;5069921;28;19967;-30
2023/05/03 11:26:08;;;;;;;;;;;15.20;63.10;;;;;;5068819;28;19961;-26
2023/05/03 11:28:36;;;;;;;;;;;15.30;62.90;;;;;;5070111;28;19913;-30
2023/05/03 11:31:01;;;;;;;;;;;15.30;62.60;;;;;;5070003;28;19921;-35
2023/05/03 11:33:28;;;;;;;;;;;15.30;61.70;;;;;;5070002;28;19913;-27
2023/05/03 11:35:55;;;;;;;;;;;15.30;62.00;;;;;;5070091;28;19919;-27
2023/05/03 11:38:20;;;;;;;;;;;15.40;62.20;;;;;;5070231;28;20368;-26
2023/05/03 11:40:46;;;;;;;;;;;15.40;62.20;;;;;;5074031;28;19939;-27
2023/05/03 11:43:11;;;;;;;;;;;15.50;61.00;;;;;;5074118;28;19927;-31
2023/05/03 11:45:42;;;;;;;;;;;15.60;60.20;;;;;;5074174;28;20284;-31
2023/05/03 11:48:08;;;;;;;;;;;15.60;60.00;;;;;;5073945;28;20292;-27
2023/05/03 11:50:55;;;;;;;;;;;15.60;62.10;;;;;;5073947;28;19923;-30
2023/05/03 11:53:22;;;;;;;;;;;15.70;62.50;;;;;;5073675;28;19913;-29
2023/05/03 11:55:49;;;;;;;;;;;15.80;62.30;;;;;;5073627;28;19995;-32
2023/05/03 11:58:16;;;;;;;;;;;15.90;61.50;;;;;;5073433;28;19918;-34
2023/05/03 12:00:42;;;;;;;;;;;16.00;60.10;;;;;;5073587;28;19912;-27
2023/05/03 12:03:09;;;;;;;;;;;16.10;60.60;;;;;;5073403;28;19913;-27
2023/05/03 12:05:34;;;;;;;;;;;16.10;60.80;;;;;;5073617;28;19912;-31
2023/05/03 12:08:00;;;;;;;;;;;16.20;58.90;;;;;;5073286;28;19920;-28
2023/05/03 12:10:30;;;;;;;;;;;16.30;61.40;;;;;;5073263;28;19922;-31
2023/05/03 12:12:56;;;;;;;;;;;16.40;59.30;;;;;;5073526;28;19912;-28
2023/05/03 12:15:28;;;;;;;;;;;16.40;60.10;;;;;;5073357;28;20387;-30
2023/05/03 12:17:55;;;;;;;;;;;16.30;57.70;;;;;;5073059;28;19913;-26
2023/05/03 12:20:21;;;;;;;;;;;16.40;59.30;;;;;;5073100;28;19919;-27
2023/05/03 12:22:48;;;;;;;;;;;16.40;58.70;;;;;;5073324;28;19937;-30
2023/05/03 12:25:14;;;;;;;;;;;16.50;58.90;;;;;;5072943;28;20416;-27
2023/05/03 12:27:39;;;;;;;;;;;16.50;57.70;;;;;;5073022;28;19962;-28
2023/05/03 12:30:05;;;;;;;;;;;16.60;58.10;;;;;;5073194;28;19917;-27
2023/05/03 12:32:31;;;;;;;;;;;16.60;58.40;;;;;;5072834;28;19912;-28
2023/05/03 12:34:56;;;;;;;;;;;16.60;58.30;;;;;;5072882;28;19912;-36
2023/05/03 12:37:22;;;;;;;;;;;16.70;58.20;;;;;;5072746;28;19920;-31
2023/05/03 12:39:47;;;;;;;;;;;16.70;58.00;;;;;;5072728;28;19912;-32
2023/05/03 12:42:13;;;;;;;;;;;16.80;57.90;;;;;;5071251;28;19962;-28
2023/05/03 12:44:39;;;;;;;;;;;16.90;57.80;;;;;;5072666;28;19913;-30
2023/05/03 12:47:04;;;;;;;;;;;17.00;58.10;;;;;;5072631;28;19918;-29
2023/05/03 12:49:30;;;;;;;;;;;17.10;57.10;;;;;;5072646;28;19912;-28
2023/05/03 12:51:59;;;;;;;;;;;17.10;57.00;;;;;;5071703;28;19915;-31
2023/05/03 12:54:25;;;;;;;;;;;17.20;58.50;;;;;;5072625;28;19912;-27
2023/05/03 12:56:50;;;;;;;;;;;17.20;58.50;;;;;;5072712;28;19989;-29
2023/05/03 12:59:15;;;;;;;;;;;17.30;58.20;;;;;;5072312;28;20027;-29
2023/05/03 13:01:41;;;;;;;;;;;17.30;57.70;;;;;;5072392;28;19913;-28
2023/05/03 13:04:07;;;;;;;;;;;17.30;57.50;;;;;;5072596;28;19919;-28
2023/05/03 13:06:35;;;;;;;;;;;17.40;58.10;;;;;;5070719;28;19917;-28
2023/05/03 13:09:01;;;;;;;;;;;17.40;57.60;;;;;;5072088;28;19916;-30
2023/05/03 13:11:28;;;;;;;;;;;17.50;57.30;;;;;;5071945;28;19916;-31
2023/05/03 13:13:53;;;;;;;;;;;17.50;56.40;;;;;;5072140;28;19955;-27
2023/05/03 13:16:19;;;;;;;;;;;17.50;54.50;;;;;;5072068;28;19962;-30
2023/05/03 13:18:44;;;;;;;;;;;17.60;55.30;;;;;;5072129;28;19912;-30
2023/05/03 13:21:11;;;;;;;;;;;17.70;55.20;;;;;;5071925;28;20689;-26
2023/05/03 13:23:36;;;;;;;;;;;17.70;55.10;;;;;;5071702;28;20003;-31
2023/05/03 13:26:02;;;;;;;;;;;17.80;55.40;;;;;;5071898;28;20026;-27
2023/05/03 13:28:27;;;;;;;;;;;17.80;55.00;;;;;;5071965;28;20369;-32
2023/05/03 13:30:53;;;;;;;;;;;17.90;55.30;;;;;;5072105;28;19916;-30
2023/05/03 13:33:18;;;;;;;;;;;18.00;54.60;;;;;;5071679;28;19912;-29
2023/05/03 13:35:44;;;;;;;;;;;18.00;55.40;;;;;;5072199;28;20291;-26
2023/05/03 13:38:09;;;;;;;;;;;18.20;55.30;;;;;;5071760;28;19913;-28
2023/05/03 13:40:35;;;;;;;;;;;18.20;55.30;;;;;;5071633;28;20015;-28
2023/05/03 13:43:00;;;;;;;;;;;18.30;55.40;;;;;;5071615;28;19912;-31
2023/05/03 13:45:26;;;;;;;;;;;18.30;53.60;;;;;;5071557;28;19917;-31
2023/05/03 13:47:51;;;;;;;;;;;18.40;53.90;;;;;;5071467;28;20267;-26
2023/05/03 13:50:17;;;;;;;;;;;18.50;53.90;;;;;;5071357;28;20356;-27
2023/05/03 13:52:43;;;;;;;;;;;18.50;53.40;;;;;;5071358;28;19959;-27
2023/05/03 13:55:09;;;;;;;;;;;18.60;53.80;;;;;;5071406;28;20012;-29
2023/05/03 13:57:35;;;;;;;;;;;18.70;54.40;;;;;;5071320;28;19917;-27
2023/05/03 14:00:00;;;;;;;;;;;18.80;55.00;;;;;;5071399;28;19913;-26
2023/05/03 14:02:26;;;;;;;;;;;18.80;54.50;;;;;;5070213;28;20061;-27
2023/05/03 14:04:52;;;;;;;;;;;18.90;54.30;;;;;;5071145;28;19916;-29
2023/05/03 14:07:18;;;;;;;;;;;19.00;54.00;;;;;;5071389;28;19912;-28
2023/05/03 14:09:43;;;;;;;;;;;19.00;53.20;;;;;;5070850;28;20261;-28
2023/05/03 14:12:09;;;;;;;;;;;19.10;54.10;;;;;;5070996;28;19968;-31
2023/05/03 14:14:35;;;;;;;;;;;19.20;54.20;;;;;;5071052;28;20013;-31
2023/05/03 14:17:01;;;;;;;;;;;19.30;54.00;;;;;;5071158;28;19920;-30
2023/05/03 14:19:26;;;;;;;;;;;19.30;54.10;;;;;;5070787;28;20293;-29